sensor_id;sensor_type;location;lat;lon;timestamp;P1;durP1;ratioP1;P2;durP2;ratioP2
56868;SDS011;42754;0.000;0.000;2022-09-09T00:04:59;4.03;;;2.17;;
56868;SDS011;42754;0.000;0.000;2022-09-09T00:18:50;4.43;;;2.30;;
56868;SDS011;42754;0.000;0.000;2022-09-09T00:21:33;4.38;;;2.50;;
56868;SDS011;42754;0.000;0.000;2022-09-09T00:27:08;6.20;;;3.13;;
56868;SDS011;42754;0.000;0.000;2022-09-09T00:30:19;4.03;;;2.70;;
56868;SDS011;42754;0.000;0.000;2022-09-09T00:35:58;6.82;;;3.88;;
56868;SDS011;42754;0.000;0.000;2022-09-09T00:38:35;6.82;;;4.50;;
56868;SDS011;42754;0.000;0.000;2022-09-09T00:41:24;5.78;;;4.03;;
56868;SDS011;42754;0.000;0.000;2022-09-09T00:43:56;14.57;;;5.00;;
56868;SDS011;42754;0.000;0.000;2022-09-09T00:49:24;9.00;;;5.07;;
56868;SDS011;42754;0.000;0.000;2022-09-09T00:57:26;10.80;;;4.80;;
56868;SDS011;42754;0.000;0.000;2022-09-09T01:00:16;11.68;;;5.10;;
56868;SDS011;42754;0.000;0.000;2022-09-09T01:06:26;7.28;;;4.20;;
56868;SDS011;42754;0.000;0.000;2022-09-09T01:14:30;5.47;;;3.40;;
56868;SDS011;42754;0.000;0.000;2022-09-09T01:17:15;6.55;;;2.85;;
56868;SDS011;42754;0.000;0.000;2022-09-09T01:28:35;6.68;;;3.45;;
56868;SDS011;42754;0.000;0.000;2022-09-09T01:31:03;5.20;;;2.88;;
56868;SDS011;42754;0.000;0.000;2022-09-09T01:33:31;4.65;;;2.47;;
56868;SDS011;42754;0.000;0.000;2022-09-09T01:38:38;5.22;;;2.25;;
56868;SDS011;42754;0.000;0.000;2022-09-09T01:41:05;3.67;;;2.10;;
56868;SDS011;42754;0.000;0.000;2022-09-09T01:43:40;4.95;;;2.50;;
56868;SDS011;42754;0.000;0.000;2022-09-09T01:46:06;3.75;;;1.83;;
56868;SDS011;42754;0.000;0.000;2022-09-09T01:48:33;5.03;;;2.47;;
56868;SDS011;42754;0.000;0.000;2022-09-09T01:50:59;4.93;;;2.15;;
56868;SDS011;42754;0.000;0.000;2022-09-09T01:53:25;4.80;;;1.90;;
56868;SDS011;42754;0.000;0.000;2022-09-09T01:56:02;4.47;;;1.95;;
56868;SDS011;42754;0.000;0.000;2022-09-09T02:03:51;2.67;;;1.95;;
56868;SDS011;42754;0.000;0.000;2022-09-09T02:08:55;2.83;;;1.98;;
56868;SDS011;42754;0.000;0.000;2022-09-09T02:11:23;3.40;;;1.98;;
56868;SDS011;42754;0.000;0.000;2022-09-09T02:13:57;2.88;;;1.65;;
56868;SDS011;42754;0.000;0.000;2022-09-09T02:16:32;3.20;;;2.08;;
56868;SDS011;42754;0.000;0.000;2022-09-09T02:19:06;4.28;;;1.80;;
56868;SDS011;42754;0.000;0.000;2022-09-09T02:21:37;3.75;;;1.90;;
56868;SDS011;42754;0.000;0.000;2022-09-09T02:27:01;4.43;;;2.10;;
56868;SDS011;42754;0.000;0.000;2022-09-09T02:29:41;3.28;;;2.10;;
56868;SDS011;42754;0.000;0.000;2022-09-09T02:32:11;5.55;;;2.95;;
56868;SDS011;42754;0.000;0.000;2022-09-09T02:37:40;3.40;;;2.28;;
56868;SDS011;42754;0.000;0.000;2022-09-09T02:40:08;4.97;;;2.40;;
56868;SDS011;42754;0.000;0.000;2022-09-09T02:42:39;7.35;;;2.45;;
56868;SDS011;42754;0.000;0.000;2022-09-09T02:48:25;7.40;;;4.07;;
56868;SDS011;42754;0.000;0.000;2022-09-09T02:51:25;6.97;;;3.85;;
56868;SDS011;42754;0.000;0.000;2022-09-09T02:54:04;7.47;;;3.88;;
56868;SDS011;42754;0.000;0.000;2022-09-09T02:56:56;5.78;;;4.03;;
56868;SDS011;42754;0.000;0.000;2022-09-09T02:59:29;8.30;;;4.70;;
56868;SDS011;42754;0.000;0.000;2022-09-09T03:01:58;11.68;;;5.03;;
56868;SDS011;42754;0.000;0.000;2022-09-09T03:04:23;12.55;;;4.97;;
56868;SDS011;42754;0.000;0.000;2022-09-09T03:06:50;8.73;;;4.82;;
56868;SDS011;42754;0.000;0.000;2022-09-09T03:09:15;8.07;;;4.80;;
56868;SDS011;42754;0.000;0.000;2022-09-09T03:11:41;8.60;;;4.75;;
56868;SDS011;42754;0.000;0.000;2022-09-09T03:14:08;8.75;;;5.57;;
56868;SDS011;42754;0.000;0.000;2022-09-09T03:16:36;9.10;;;5.10;;
56868;SDS011;42754;0.000;0.000;2022-09-09T03:19:02;9.30;;;5.35;;
56868;SDS011;42754;0.000;0.000;2022-09-09T03:21:28;7.00;;;4.80;;
56868;SDS011;42754;0.000;0.000;2022-09-09T03:23:56;8.32;;;4.93;;
56868;SDS011;42754;0.000;0.000;2022-09-09T03:26:22;8.25;;;4.97;;
56868;SDS011;42754;0.000;0.000;2022-09-09T03:28:48;10.82;;;5.53;;
56868;SDS011;42754;0.000;0.000;2022-09-09T03:31:16;9.90;;;5.45;;
56868;SDS011;42754;0.000;0.000;2022-09-09T03:33:54;9.27;;;5.72;;
56868;SDS011;42754;0.000;0.000;2022-09-09T03:36:19;9.20;;;5.88;;
56868;SDS011;42754;0.000;0.000;2022-09-09T03:38:57;13.40;;;5.60;;
56868;SDS011;42754;0.000;0.000;2022-09-09T03:41:24;7.72;;;6.03;;
56868;SDS011;42754;0.000;0.000;2022-09-09T03:43:51;8.27;;;5.82;;
56868;SDS011;42754;0.000;0.000;2022-09-09T03:48:50;12.18;;;6.10;;
56868;SDS011;42754;0.000;0.000;2022-09-09T03:51:28;8.82;;;5.47;;
56868;SDS011;42754;0.000;0.000;2022-09-09T03:53:54;10.50;;;6.05;;
56868;SDS011;42754;0.000;0.000;2022-09-09T03:56:24;9.07;;;6.47;;
56868;SDS011;42754;0.000;0.000;2022-09-09T03:58:49;10.82;;;6.00;;
56868;SDS011;42754;0.000;0.000;2022-09-09T04:01:17;12.63;;;6.05;;
56868;SDS011;42754;0.000;0.000;2022-09-09T04:03:43;10.30;;;6.15;;
56868;SDS011;42754;0.000;0.000;2022-09-09T04:06:12;11.10;;;5.72;;
56868;SDS011;42754;0.000;0.000;2022-09-09T04:08:39;11.32;;;5.38;;
56868;SDS011;42754;0.000;0.000;2022-09-09T04:11:05;11.93;;;5.93;;
56868;SDS011;42754;0.000;0.000;2022-09-09T04:13:32;13.88;;;6.78;;
56868;SDS011;42754;0.000;0.000;2022-09-09T04:15:59;10.07;;;6.15;;
56868;SDS011;42754;0.000;0.000;2022-09-09T04:18:25;10.13;;;6.32;;
56868;SDS011;42754;0.000;0.000;2022-09-09T04:20:53;8.05;;;5.57;;
56868;SDS011;42754;0.000;0.000;2022-09-09T04:23:21;12.00;;;6.28;;
56868;SDS011;42754;0.000;0.000;2022-09-09T04:25:48;11.23;;;6.20;;
56868;SDS011;42754;0.000;0.000;2022-09-09T04:28:15;9.23;;;5.30;;
56868;SDS011;42754;0.000;0.000;2022-09-09T04:30:42;9.57;;;5.45;;
56868;SDS011;42754;0.000;0.000;2022-09-09T04:33:08;10.60;;;4.65;;
56868;SDS011;42754;0.000;0.000;2022-09-09T04:35:46;10.48;;;4.78;;
56868;SDS011;42754;0.000;0.000;2022-09-09T04:38:13;7.35;;;5.00;;
56868;SDS011;42754;0.000;0.000;2022-09-09T04:40:46;11.68;;;5.18;;
56868;SDS011;42754;0.000;0.000;2022-09-09T04:43:17;11.50;;;5.18;;
56868;SDS011;42754;0.000;0.000;2022-09-09T04:45:44;9.82;;;5.25;;
56868;SDS011;42754;0.000;0.000;2022-09-09T04:48:17;9.63;;;5.53;;
56868;SDS011;42754;0.000;0.000;2022-09-09T04:50:43;10.68;;;4.72;;
56868;SDS011;42754;0.000;0.000;2022-09-09T04:53:10;11.65;;;5.47;;
56868;SDS011;42754;0.000;0.000;2022-09-09T04:55:36;11.18;;;4.78;;
56868;SDS011;42754;0.000;0.000;2022-09-09T04:58:03;10.50;;;5.00;;
56868;SDS011;42754;0.000;0.000;2022-09-09T05:00:30;11.25;;;5.32;;
56868;SDS011;42754;0.000;0.000;2022-09-09T05:06:19;9.65;;;5.03;;
56868;SDS011;42754;0.000;0.000;2022-09-09T05:08:46;13.60;;;5.50;;
56868;SDS011;42754;0.000;0.000;2022-09-09T05:11:21;12.35;;;5.53;;
56868;SDS011;42754;0.000;0.000;2022-09-09T05:13:53;13.85;;;4.60;;
56868;SDS011;42754;0.000;0.000;2022-09-09T05:16:29;8.93;;;5.55;;
56868;SDS011;42754;0.000;0.000;2022-09-09T05:18:56;13.48;;;5.70;;
56868;SDS011;42754;0.000;0.000;2022-09-09T05:21:22;9.00;;;5.20;;
56868;SDS011;42754;0.000;0.000;2022-09-09T05:23:51;10.05;;;5.10;;
56868;SDS011;42754;0.000;0.000;2022-09-09T05:26:18;10.20;;;5.35;;
56868;SDS011;42754;0.000;0.000;2022-09-09T05:28:45;16.98;;;6.28;;
56868;SDS011;42754;0.000;0.000;2022-09-09T05:31:13;15.75;;;5.93;;
56868;SDS011;42754;0.000;0.000;2022-09-09T05:33:40;10.15;;;5.63;;
56868;SDS011;42754;0.000;0.000;2022-09-09T05:36:10;12.32;;;4.90;;
56868;SDS011;42754;0.000;0.000;2022-09-09T05:41:06;9.43;;;4.97;;
56868;SDS011;42754;0.000;0.000;2022-09-09T05:43:32;8.20;;;4.72;;
56868;SDS011;42754;0.000;0.000;2022-09-09T05:46:11;10.43;;;6.35;;
56868;SDS011;42754;0.000;0.000;2022-09-09T05:48:38;11.95;;;5.10;;
56868;SDS011;42754;0.000;0.000;2022-09-09T05:51:06;11.23;;;5.22;;
56868;SDS011;42754;0.000;0.000;2022-09-09T05:53:34;12.45;;;5.30;;
56868;SDS011;42754;0.000;0.000;2022-09-09T05:56:01;13.88;;;5.43;;
56868;SDS011;42754;0.000;0.000;2022-09-09T05:58:31;16.17;;;5.07;;
56868;SDS011;42754;0.000;0.000;2022-09-09T06:01:04;10.15;;;4.70;;
56868;SDS011;42754;0.000;0.000;2022-09-09T06:03:33;11.63;;;4.32;;
56868;SDS011;42754;0.000;0.000;2022-09-09T06:06:04;9.43;;;4.10;;
56868;SDS011;42754;0.000;0.000;2022-09-09T06:08:32;12.43;;;4.53;;
56868;SDS011;42754;0.000;0.000;2022-09-09T06:11:09;8.02;;;4.28;;
56868;SDS011;42754;0.000;0.000;2022-09-09T06:13:43;11.82;;;4.20;;
56868;SDS011;42754;0.000;0.000;2022-09-09T06:16:10;7.90;;;3.38;;
56868;SDS011;42754;0.000;0.000;2022-09-09T06:18:40;7.07;;;3.20;;
56868;SDS011;42754;0.000;0.000;2022-09-09T06:21:09;8.30;;;3.47;;
56868;SDS011;42754;0.000;0.000;2022-09-09T06:23:48;8.60;;;3.55;;
56868;SDS011;42754;0.000;0.000;2022-09-09T06:26:20;6.55;;;2.80;;
56868;SDS011;42754;0.000;0.000;2022-09-09T06:28:56;7.80;;;2.95;;
56868;SDS011;42754;0.000;0.000;2022-09-09T06:31:24;6.40;;;2.53;;
56868;SDS011;42754;0.000;0.000;2022-09-09T06:33:57;6.53;;;3.00;;
56868;SDS011;42754;0.000;0.000;2022-09-09T06:36:24;8.15;;;3.30;;
56868;SDS011;42754;0.000;0.000;2022-09-09T06:38:51;7.50;;;3.25;;
56868;SDS011;42754;0.000;0.000;2022-09-09T06:41:21;7.43;;;3.30;;
56868;SDS011;42754;0.000;0.000;2022-09-09T06:43:47;9.63;;;3.40;;
56868;SDS011;42754;0.000;0.000;2022-09-09T06:48:46;9.48;;;3.67;;
56868;SDS011;42754;0.000;0.000;2022-09-09T06:51:16;10.48;;;3.90;;
56868;SDS011;42754;0.000;0.000;2022-09-09T06:53:44;12.40;;;4.55;;
56868;SDS011;42754;0.000;0.000;2022-09-09T06:58:37;12.93;;;3.80;;
56868;SDS011;42754;0.000;0.000;2022-09-09T07:01:10;11.23;;;2.90;;
56868;SDS011;42754;0.000;0.000;2022-09-09T07:03:38;6.43;;;2.88;;
56868;SDS011;42754;0.000;0.000;2022-09-09T07:06:05;6.97;;;2.80;;
56868;SDS011;42754;0.000;0.000;2022-09-09T07:08:32;9.52;;;3.53;;
56868;SDS011;42754;0.000;0.000;2022-09-09T07:11:05;12.57;;;3.20;;
56868;SDS011;42754;0.000;0.000;2022-09-09T07:13:32;6.38;;;2.50;;
56868;SDS011;42754;0.000;0.000;2022-09-09T07:16:06;8.75;;;2.55;;
56868;SDS011;42754;0.000;0.000;2022-09-09T07:18:33;6.80;;;2.13;;
56868;SDS011;42754;0.000;0.000;2022-09-09T07:20:59;6.78;;;2.15;;
56868;SDS011;42754;0.000;0.000;2022-09-09T07:23:27;5.80;;;2.70;;
56868;SDS011;42754;0.000;0.000;2022-09-09T07:25:53;8.82;;;2.17;;
56868;SDS011;42754;0.000;0.000;2022-09-09T07:28:22;6.35;;;2.65;;
56868;SDS011;42754;0.000;0.000;2022-09-09T07:30:57;8.75;;;2.70;;
56868;SDS011;42754;0.000;0.000;2022-09-09T07:33:26;8.18;;;2.03;;
56868;SDS011;42754;0.000;0.000;2022-09-09T07:35:52;6.07;;;2.35;;
56868;SDS011;42754;0.000;0.000;2022-09-09T07:38:18;6.30;;;2.10;;
56868;SDS011;42754;0.000;0.000;2022-09-09T07:40:45;5.07;;;2.83;;
56868;SDS011;42754;0.000;0.000;2022-09-09T07:43:11;7.88;;;2.70;;
56868;SDS011;42754;0.000;0.000;2022-09-09T07:45:36;9.20;;;3.10;;
56868;SDS011;42754;0.000;0.000;2022-09-09T07:48:03;5.85;;;2.58;;
56868;SDS011;42754;0.000;0.000;2022-09-09T07:50:29;7.63;;;2.35;;
56868;SDS011;42754;0.000;0.000;2022-09-09T07:52:55;6.82;;;2.22;;
56868;SDS011;42754;0.000;0.000;2022-09-09T07:55:21;4.68;;;1.90;;
56868;SDS011;42754;0.000;0.000;2022-09-09T07:57:50;8.43;;;3.13;;
56868;SDS011;42754;0.000;0.000;2022-09-09T08:00:16;8.00;;;2.22;;
56868;SDS011;42754;0.000;0.000;2022-09-09T08:02:43;7.13;;;2.38;;
56868;SDS011;42754;0.000;0.000;2022-09-09T08:05:09;11.48;;;2.83;;
56868;SDS011;42754;0.000;0.000;2022-09-09T08:07:35;4.30;;;2.40;;
56868;SDS011;42754;0.000;0.000;2022-09-09T08:10:01;13.40;;;3.50;;
56868;SDS011;42754;0.000;0.000;2022-09-09T08:12:27;8.32;;;2.80;;
56868;SDS011;42754;0.000;0.000;2022-09-09T08:14:53;9.48;;;2.90;;
56868;SDS011;42754;0.000;0.000;2022-09-09T08:17:19;12.55;;;3.13;;
56868;SDS011;42754;0.000;0.000;2022-09-09T08:19:45;8.48;;;2.25;;
56868;SDS011;42754;0.000;0.000;2022-09-09T08:22:10;5.30;;;1.80;;
56868;SDS011;42754;0.000;0.000;2022-09-09T08:24:36;7.22;;;2.30;;
56868;SDS011;42754;0.000;0.000;2022-09-09T08:27:01;7.05;;;2.28;;
56868;SDS011;42754;0.000;0.000;2022-09-09T08:29:27;7.97;;;2.80;;
56868;SDS011;42754;0.000;0.000;2022-09-09T08:31:54;11.75;;;2.40;;
56868;SDS011;42754;0.000;0.000;2022-09-09T08:34:22;6.57;;;1.90;;
56868;SDS011;42754;0.000;0.000;2022-09-09T08:36:57;7.57;;;1.98;;
56868;SDS011;42754;0.000;0.000;2022-09-09T08:39:23;7.40;;;2.30;;
56868;SDS011;42754;0.000;0.000;2022-09-09T08:42:02;4.25;;;1.70;;
56868;SDS011;42754;0.000;0.000;2022-09-09T08:52:36;5.30;;;2.20;;
56868;SDS011;42754;0.000;0.000;2022-09-09T08:55:24;6.93;;;2.22;;
56868;SDS011;42754;0.000;0.000;2022-09-09T09:09:00;12.02;;;2.63;;
56868;SDS011;42754;0.000;0.000;2022-09-09T09:11:50;5.25;;;1.77;;
56868;SDS011;42754;0.000;0.000;2022-09-09T09:14:26;6.22;;;2.22;;
56868;SDS011;42754;0.000;0.000;2022-09-09T09:19:49;8.65;;;2.22;;
56868;SDS011;42754;0.000;0.000;2022-09-09T09:25:38;5.82;;;1.42;;
56868;SDS011;42754;0.000;0.000;2022-09-09T09:33:53;4.57;;;1.63;;
56868;SDS011;42754;0.000;0.000;2022-09-09T09:36:48;6.35;;;2.03;;
56868;SDS011;42754;0.000;0.000;2022-09-09T09:39:28;3.78;;;2.17;;
56868;SDS011;42754;0.000;0.000;2022-09-09T09:42:14;7.47;;;2.00;;
56868;SDS011;42754;0.000;0.000;2022-09-09T09:48:03;8.20;;;1.88;;
56868;SDS011;42754;0.000;0.000;2022-09-09T09:50:39;4.07;;;1.60;;
56868;SDS011;42754;0.000;0.000;2022-09-09T09:53:30;4.55;;;1.98;;
56868;SDS011;42754;0.000;0.000;2022-09-09T09:56:12;4.13;;;1.58;;
56868;SDS011;42754;0.000;0.000;2022-09-09T10:01:30;7.35;;;1.40;;
56868;SDS011;42754;0.000;0.000;2022-09-09T10:04:26;4.82;;;1.60;;
56868;SDS011;42754;0.000;0.000;2022-09-09T10:06:58;8.07;;;1.65;;
56868;SDS011;42754;0.000;0.000;2022-09-09T10:10:02;7.05;;;2.10;;
56868;SDS011;42754;0.000;0.000;2022-09-09T10:18:22;9.10;;;1.30;;
56868;SDS011;42754;0.000;0.000;2022-09-09T10:34:56;4.70;;;1.20;;
56868;SDS011;42754;0.000;0.000;2022-09-09T10:42:51;7.22;;;1.25;;
56868;SDS011;42754;0.000;0.000;2022-09-09T10:45:26;3.45;;;0.80;;
56868;SDS011;42754;0.000;0.000;2022-09-09T10:53:43;6.43;;;1.25;;
56868;SDS011;42754;0.000;0.000;2022-09-09T10:56:12;7.50;;;1.35;;
56868;SDS011;42754;0.000;0.000;2022-09-09T11:01:18;4.22;;;1.30;;
56868;SDS011;42754;0.000;0.000;2022-09-09T11:04:13;6.18;;;1.80;;
56868;SDS011;42754;0.000;0.000;2022-09-09T11:07:05;3.28;;;1.20;;
56868;SDS011;42754;0.000;0.000;2022-09-09T11:09:35;4.63;;;1.52;;
56868;SDS011;42754;0.000;0.000;2022-09-09T11:12:04;5.90;;;1.10;;
56868;SDS011;42754;0.000;0.000;2022-09-09T11:14:55;6.22;;;1.45;;
56868;SDS011;42754;0.000;0.000;2022-09-09T11:17:28;3.83;;;1.15;;
56868;SDS011;42754;0.000;0.000;2022-09-09T11:20:00;3.88;;;1.27;;
56868;SDS011;42754;0.000;0.000;2022-09-09T11:25:36;6.03;;;1.60;;
56868;SDS011;42754;0.000;0.000;2022-09-09T11:41:06;4.38;;;1.10;;
56868;SDS011;42754;0.000;0.000;2022-09-09T11:46:07;7.50;;;1.33;;
56868;SDS011;42754;0.000;0.000;2022-09-09T11:48:35;8.88;;;1.20;;
56868;SDS011;42754;0.000;0.000;2022-09-09T11:51:13;3.80;;;1.13;;
56868;SDS011;42754;0.000;0.000;2022-09-09T11:53:57;3.78;;;1.35;;
56868;SDS011;42754;0.000;0.000;2022-09-09T11:56:29;4.97;;;1.13;;
56868;SDS011;42754;0.000;0.000;2022-09-09T12:01:35;6.03;;;1.88;;
56868;SDS011;42754;0.000;0.000;2022-09-09T12:09:29;5.85;;;1.45;;
56868;SDS011;42754;0.000;0.000;2022-09-09T12:14:43;6.70;;;1.60;;
56868;SDS011;42754;0.000;0.000;2022-09-09T12:17:37;5.47;;;1.38;;
56868;SDS011;42754;0.000;0.000;2022-09-09T12:20:26;5.53;;;1.73;;
56868;SDS011;42754;0.000;0.000;2022-09-09T12:25:56;3.08;;;1.58;;
56868;SDS011;42754;0.000;0.000;2022-09-09T12:31:36;5.65;;;1.50;;
56868;SDS011;42754;0.000;0.000;2022-09-09T12:34:20;6.45;;;1.63;;
56868;SDS011;42754;0.000;0.000;2022-09-09T12:40:01;6.13;;;1.25;;
56868;SDS011;42754;0.000;0.000;2022-09-09T12:42:43;3.42;;;1.25;;
56868;SDS011;42754;0.000;0.000;2022-09-09T12:45:16;3.92;;;1.48;;
56868;SDS011;42754;0.000;0.000;2022-09-09T12:47:56;5.55;;;1.45;;
56868;SDS011;42754;0.000;0.000;2022-09-09T12:50:50;3.53;;;2.33;;
56868;SDS011;42754;0.000;0.000;2022-09-09T12:56:00;7.32;;;1.90;;
56868;SDS011;42754;0.000;0.000;2022-09-09T12:58:29;7.05;;;1.60;;
56868;SDS011;42754;0.000;0.000;2022-09-09T13:01:00;5.25;;;1.30;;
56868;SDS011;42754;0.000;0.000;2022-09-09T13:03:30;3.90;;;1.25;;
56868;SDS011;42754;0.000;0.000;2022-09-09T13:06:10;2.75;;;1.20;;
56868;SDS011;42754;0.000;0.000;2022-09-09T13:08:37;2.13;;;1.07;;
56868;SDS011;42754;0.000;0.000;2022-09-09T13:11:04;3.20;;;0.98;;
56868;SDS011;42754;0.000;0.000;2022-09-09T13:13:36;5.18;;;1.58;;
56868;SDS011;42754;0.000;0.000;2022-09-09T13:16:04;5.25;;;1.10;;
56868;SDS011;42754;0.000;0.000;2022-09-09T13:18:36;4.43;;;1.52;;
56868;SDS011;42754;0.000;0.000;2022-09-09T13:21:05;3.40;;;1.17;;
56868;SDS011;42754;0.000;0.000;2022-09-09T13:23:33;4.43;;;1.13;;
56868;SDS011;42754;0.000;0.000;2022-09-09T13:26:02;3.63;;;1.20;;
56868;SDS011;42754;0.000;0.000;2022-09-09T13:28:32;5.35;;;1.20;;
56868;SDS011;42754;0.000;0.000;2022-09-09T13:33:29;4.55;;;1.20;;
56868;SDS011;42754;0.000;0.000;2022-09-09T13:36:05;3.60;;;1.27;;
56868;SDS011;42754;0.000;0.000;2022-09-09T13:38:54;1.67;;;1.30;;
56868;SDS011;42754;0.000;0.000;2022-09-09T13:41:30;3.45;;;1.30;;
56868;SDS011;42754;0.000;0.000;2022-09-09T13:43:58;6.03;;;1.65;;
56868;SDS011;42754;0.000;0.000;2022-09-09T13:46:28;4.97;;;1.58;;
56868;SDS011;42754;0.000;0.000;2022-09-09T13:48:59;5.18;;;2.05;;
56868;SDS011;42754;0.000;0.000;2022-09-09T13:52:03;4.55;;;2.03;;
56868;SDS011;42754;0.000;0.000;2022-09-09T13:54:28;3.53;;;1.90;;
56868;SDS011;42754;0.000;0.000;2022-09-09T13:56:55;3.70;;;1.63;;
56868;SDS011;42754;0.000;0.000;2022-09-09T13:59:21;6.32;;;1.98;;
56868;SDS011;42754;0.000;0.000;2022-09-09T14:01:49;5.13;;;1.90;;
56868;SDS011;42754;0.000;0.000;2022-09-09T14:04:17;3.45;;;1.60;;
56868;SDS011;42754;0.000;0.000;2022-09-09T14:06:46;6.30;;;1.77;;
56868;SDS011;42754;0.000;0.000;2022-09-09T14:09:13;4.28;;;2.00;;
56868;SDS011;42754;0.000;0.000;2022-09-09T14:11:41;3.40;;;1.88;;
56868;SDS011;42754;0.000;0.000;2022-09-09T14:14:07;4.65;;;1.42;;
56868;SDS011;42754;0.000;0.000;2022-09-09T14:16:33;2.70;;;1.02;;
56868;SDS011;42754;0.000;0.000;2022-09-09T14:18:59;5.60;;;1.90;;
56868;SDS011;42754;0.000;0.000;2022-09-09T14:21:26;3.58;;;1.83;;
56868;SDS011;42754;0.000;0.000;2022-09-09T14:23:52;5.13;;;1.65;;
56868;SDS011;42754;0.000;0.000;2022-09-09T14:26:18;4.07;;;1.40;;
56868;SDS011;42754;0.000;0.000;2022-09-09T14:28:55;2.80;;;1.20;;
56868;SDS011;42754;0.000;0.000;2022-09-09T14:31:21;2.80;;;1.20;;
56868;SDS011;42754;0.000;0.000;2022-09-09T14:33:50;4.22;;;2.05;;
56868;SDS011;42754;0.000;0.000;2022-09-09T14:36:16;5.72;;;1.63;;
56868;SDS011;42754;0.000;0.000;2022-09-09T14:38:42;6.53;;;1.98;;
56868;SDS011;42754;0.000;0.000;2022-09-09T14:41:11;5.10;;;2.03;;
56868;SDS011;42754;0.000;0.000;2022-09-09T14:43:41;6.15;;;1.67;;
56868;SDS011;42754;0.000;0.000;2022-09-09T14:46:08;4.72;;;1.52;;
56868;SDS011;42754;0.000;0.000;2022-09-09T14:48:36;4.45;;;1.50;;
56868;SDS011;42754;0.000;0.000;2022-09-09T14:51:09;5.40;;;1.55;;
56868;SDS011;42754;0.000;0.000;2022-09-09T14:53:40;2.85;;;1.40;;
56868;SDS011;42754;0.000;0.000;2022-09-09T14:58:33;4.32;;;1.05;;
56868;SDS011;42754;0.000;0.000;2022-09-09T15:01:09;5.00;;;1.50;;
56868;SDS011;42754;0.000;0.000;2022-09-09T15:03:37;4.88;;;1.77;;
56868;SDS011;42754;0.000;0.000;2022-09-09T15:06:04;7.72;;;2.20;;
56868;SDS011;42754;0.000;0.000;2022-09-09T15:08:51;3.10;;;1.65;;
56868;SDS011;42754;0.000;0.000;2022-09-09T15:11:20;4.25;;;1.52;;
56868;SDS011;42754;0.000;0.000;2022-09-09T15:13:47;3.78;;;1.23;;
56868;SDS011;42754;0.000;0.000;2022-09-09T15:16:17;3.65;;;1.90;;
56868;SDS011;42754;0.000;0.000;2022-09-09T15:18:55;3.17;;;2.08;;
56868;SDS011;42754;0.000;0.000;2022-09-09T15:21:40;4.95;;;1.83;;
56868;SDS011;42754;0.000;0.000;2022-09-09T15:24:11;4.93;;;1.75;;
56868;SDS011;42754;0.000;0.000;2022-09-09T15:26:41;4.32;;;1.83;;
56868;SDS011;42754;0.000;0.000;2022-09-09T15:29:11;6.28;;;1.70;;
56868;SDS011;42754;0.000;0.000;2022-09-09T15:31:41;3.90;;;1.30;;
56868;SDS011;42754;0.000;0.000;2022-09-09T15:34:25;3.38;;;1.60;;
56868;SDS011;42754;0.000;0.000;2022-09-09T15:36:59;9.02;;;1.80;;
56868;SDS011;42754;0.000;0.000;2022-09-09T15:39:29;7.20;;;2.13;;
56868;SDS011;42754;0.000;0.000;2022-09-09T15:41:54;5.00;;;1.67;;
56868;SDS011;42754;0.000;0.000;2022-09-09T15:44:20;4.10;;;1.80;;
56868;SDS011;42754;0.000;0.000;2022-09-09T15:46:50;6.57;;;1.90;;
56868;SDS011;42754;0.000;0.000;2022-09-09T15:49:24;7.68;;;2.00;;
56868;SDS011;42754;0.000;0.000;2022-09-09T15:51:57;3.33;;;1.67;;
56868;SDS011;42754;0.000;0.000;2022-09-09T15:54:35;4.97;;;2.00;;
56868;SDS011;42754;0.000;0.000;2022-09-09T15:57:13;4.90;;;1.85;;
56868;SDS011;42754;0.000;0.000;2022-09-09T15:59:39;8.70;;;2.20;;
56868;SDS011;42754;0.000;0.000;2022-09-09T16:02:27;4.75;;;1.70;;
56868;SDS011;42754;0.000;0.000;2022-09-09T16:05:05;5.22;;;2.05;;
56868;SDS011;42754;0.000;0.000;2022-09-09T16:07:39;5.05;;;1.58;;
56868;SDS011;42754;0.000;0.000;2022-09-09T16:10:08;3.72;;;1.60;;
56868;SDS011;42754;0.000;0.000;2022-09-09T16:12:39;4.78;;;1.58;;
56868;SDS011;42754;0.000;0.000;2022-09-09T16:15:14;2.40;;;1.55;;
56868;SDS011;42754;0.000;0.000;2022-09-09T16:17:53;3.92;;;1.80;;
56868;SDS011;42754;0.000;0.000;2022-09-09T16:20:19;5.38;;;1.85;;
56868;SDS011;42754;0.000;0.000;2022-09-09T16:22:45;6.47;;;2.17;;
56868;SDS011;42754;0.000;0.000;2022-09-09T16:25:10;6.75;;;1.67;;
56868;SDS011;42754;0.000;0.000;2022-09-09T16:27:45;4.00;;;1.33;;
56868;SDS011;42754;0.000;0.000;2022-09-09T16:30:11;3.92;;;1.13;;
56868;SDS011;42754;0.000;0.000;2022-09-09T16:32:37;3.13;;;1.00;;
56868;SDS011;42754;0.000;0.000;2022-09-09T16:35:03;0.50;;;0.50;;
56868;SDS011;42754;0.000;0.000;2022-09-09T16:37:29;0.40;;;0.40;;
56868;SDS011;42754;0.000;0.000;2022-09-09T16:39:56;2.40;;;0.70;;
56868;SDS011;42754;0.000;0.000;2022-09-09T16:42:22;0.98;;;0.40;;
56868;SDS011;42754;0.000;0.000;2022-09-09T16:44:47;2.35;;;0.82;;
56868;SDS011;42754;0.000;0.000;2022-09-09T16:47:15;1.35;;;0.50;;
56868;SDS011;42754;0.000;0.000;2022-09-09T16:49:40;1.70;;;0.73;;
56868;SDS011;42754;0.000;0.000;2022-09-09T16:52:07;4.90;;;0.70;;
56868;SDS011;42754;0.000;0.000;2022-09-09T16:54:32;5.95;;;0.93;;
56868;SDS011;42754;0.000;0.000;2022-09-09T16:56:58;2.72;;;0.80;;
56868;SDS011;42754;0.000;0.000;2022-09-09T16:59:24;3.33;;;1.10;;
56868;SDS011;42754;0.000;0.000;2022-09-09T17:01:51;3.03;;;0.90;;
56868;SDS011;42754;0.000;0.000;2022-09-09T17:04:21;1.27;;;0.80;;
56868;SDS011;42754;0.000;0.000;2022-09-09T17:06:50;2.05;;;0.70;;
56868;SDS011;42754;0.000;0.000;2022-09-09T17:09:17;2.38;;;0.75;;
56868;SDS011;42754;0.000;0.000;2022-09-09T17:11:44;1.98;;;1.27;;
56868;SDS011;42754;0.000;0.000;2022-09-09T17:14:13;2.25;;;1.10;;
56868;SDS011;42754;0.000;0.000;2022-09-09T17:16:41;2.97;;;1.10;;
56868;SDS011;42754;0.000;0.000;2022-09-09T17:19:06;3.78;;;1.35;;
56868;SDS011;42754;0.000;0.000;2022-09-09T17:21:34;1.98;;;1.60;;
56868;SDS011;42754;0.000;0.000;2022-09-09T17:23:59;2.67;;;1.42;;
56868;SDS011;42754;0.000;0.000;2022-09-09T17:26:26;3.08;;;1.80;;
56868;SDS011;42754;0.000;0.000;2022-09-09T17:28:54;2.88;;;1.67;;
56868;SDS011;42754;0.000;0.000;2022-09-09T17:31:22;3.45;;;1.65;;
56868;SDS011;42754;0.000;0.000;2022-09-09T17:33:48;5.22;;;1.65;;
56868;SDS011;42754;0.000;0.000;2022-09-09T17:36:16;3.20;;;1.95;;
56868;SDS011;42754;0.000;0.000;2022-09-09T17:38:44;2.45;;;1.95;;
56868;SDS011;42754;0.000;0.000;2022-09-09T17:43:41;4.93;;;2.15;;
56868;SDS011;42754;0.000;0.000;2022-09-09T17:48:34;4.22;;;2.40;;
56868;SDS011;42754;0.000;0.000;2022-09-09T17:51:01;4.03;;;2.05;;
56868;SDS011;42754;0.000;0.000;2022-09-09T17:53:36;4.30;;;1.98;;
56868;SDS011;42754;0.000;0.000;2022-09-09T17:56:07;3.35;;;2.30;;
56868;SDS011;42754;0.000;0.000;2022-09-09T17:58:34;9.02;;;2.47;;
56868;SDS011;42754;0.000;0.000;2022-09-09T18:01:04;2.90;;;2.15;;
56868;SDS011;42754;0.000;0.000;2022-09-09T18:03:35;4.50;;;2.40;;
56868;SDS011;42754;0.000;0.000;2022-09-09T18:06:06;4.90;;;2.60;;
56868;SDS011;42754;0.000;0.000;2022-09-09T18:08:46;7.45;;;3.15;;
56868;SDS011;42754;0.000;0.000;2022-09-09T18:11:14;2.35;;;2.15;;
56868;SDS011;42754;0.000;0.000;2022-09-09T18:13:40;4.40;;;2.60;;
56868;SDS011;42754;0.000;0.000;2022-09-09T18:16:06;5.88;;;3.45;;
56868;SDS011;42754;0.000;0.000;2022-09-09T18:18:33;4.97;;;3.50;;
56868;SDS011;42754;0.000;0.000;2022-09-09T18:20:59;5.03;;;3.45;;
56868;SDS011;42754;0.000;0.000;2022-09-09T18:23:27;4.35;;;3.15;;
56868;SDS011;42754;0.000;0.000;2022-09-09T18:25:54;6.75;;;4.18;;
56868;SDS011;42754;0.000;0.000;2022-09-09T18:28:20;8.65;;;3.88;;
56868;SDS011;42754;0.000;0.000;2022-09-09T18:30:47;4.72;;;3.30;;
56868;SDS011;42754;0.000;0.000;2022-09-09T18:33:13;4.70;;;3.63;;
56868;SDS011;42754;0.000;0.000;2022-09-09T18:35:39;6.25;;;4.45;;
56868;SDS011;42754;0.000;0.000;2022-09-09T18:38:05;8.25;;;5.15;;
56868;SDS011;42754;0.000;0.000;2022-09-09T18:40:31;7.15;;;4.22;;
56868;SDS011;42754;0.000;0.000;2022-09-09T18:42:57;8.15;;;5.00;;
56868;SDS011;42754;0.000;0.000;2022-09-09T18:45:22;9.60;;;4.70;;